aviador You're here:

KFVE Decoded Metar

FRENCHVILLE in ME, USA
Report Time2018-04-24 17:53:00
UTC Time2018-04-24 18:28:15
Flight Rules vfr VFR
Wind240° at 12 kt
W.Decomp.*RWY 32: 5.6 kt HW 10.6 kt LCW
W.Rank240° ranks 18
Current wind is above 240° avg. (7.9)
Visibility9999 m
Phenomena:N/A
Clouds:N/A
Expected CloudBase > 9,600 ft AGL from Temp-Dew spread
CeilingNone
Temp17°C (ISA +4)
Dew Point-7°C (19% RH)
AAT9.9°C
QNH1019 hPa
Density Alt1,309 ft
Elevation988 ft
Report Wrong Elevation
Raw Report
KFVE 241753Z AUTO 24012KT 10SM CLR 17/M07 A3010 RMK AO2 SLP195
T01721067 10172 20044 56019=

Extra information for KFVE:More info

Metar Taf Metar & Taf Last 4 Metars F.Rules Stats Wind Profile Meteogram Temp Stats Airport Information Weather charts Add Link Nearby VenuesMetar ALERT Operation Metar Decoded Social comments

AIRNAV info for KFVE